createdAt,value
2018-01-12T15:15:19.709Z,1026.95
2018-01-12T15:16:25.191Z,1026.88
2018-01-12T15:17:30.727Z,1026.86
2018-01-12T15:18:36.244Z,1026.88
2018-01-12T15:19:41.771Z,1026.85
2018-01-12T15:20:47.301Z,1026.86
2018-01-12T15:21:52.837Z,1026.85
2018-01-12T15:22:58.370Z,1026.84
2018-01-12T15:24:03.894Z,1026.82
2018-01-12T15:25:09.432Z,1026.86
2018-01-12T15:26:14.999Z,1026.87
2018-01-12T15:27:20.494Z,1026.88
2018-01-12T15:28:26.015Z,1026.87
2018-01-12T15:29:31.555Z,1026.85
2018-01-12T15:30:37.075Z,1026.84
2018-01-12T15:31:42.607Z,1026.86
2018-01-12T15:32:48.141Z,1026.85
2018-01-12T15:33:53.668Z,1026.80
2018-01-12T15:34:59.192Z,1026.88
2018-01-12T15:37:37.071Z,1026.82
2018-01-12T15:38:42.559Z,1026.85
2018-01-12T15:39:48.089Z,1026.86
2018-01-12T15:40:53.617Z,1026.90
2018-01-12T15:41:59.152Z,1026.84
2018-01-12T15:43:04.676Z,1026.87
2018-01-12T15:44:10.210Z,1026.82
2018-01-12T15:45:15.739Z,1026.89
2018-01-12T15:46:21.260Z,1026.86
2018-01-12T15:47:26.794Z,1026.86
2018-01-12T15:48:32.337Z,1026.86
2018-01-12T15:49:37.857Z,1026.84
2018-01-12T15:50:43.385Z,1026.89
2018-01-12T15:51:48.909Z,1026.86
2018-01-12T15:52:54.441Z,1026.86
2018-01-12T15:53:59.967Z,1026.86
2018-01-12T15:55:05.498Z,1026.85
2018-01-12T15:56:11.027Z,1026.88
2018-01-12T15:57:16.558Z,1026.93
2018-01-12T15:58:22.084Z,1026.91
2018-01-12T15:59:27.609Z,1026.92
2018-01-12T16:00:33.143Z,1026.95
2018-01-12T16:01:38.670Z,1026.90
2018-01-12T16:02:44.209Z,1026.96
2018-01-12T16:03:49.728Z,1026.96
2018-01-12T16:04:55.264Z,1027.02
2018-01-12T16:06:00.789Z,1026.99
2018-01-12T16:07:06.317Z,1027.06
2018-01-12T16:08:11.848Z,1027.10
2018-01-12T16:09:17.378Z,1027.06
2018-01-12T16:10:22.910Z,1027.05
2018-01-12T16:11:28.447Z,1027.09
2018-01-12T16:12:33.970Z,1027.11
2018-01-12T16:13:39.497Z,1027.16
2018-01-12T16:14:45.028Z,1027.13
2018-01-12T16:15:50.563Z,1027.20
2018-01-12T16:16:56.089Z,1027.20
2018-01-12T16:18:01.614Z,1027.18
2018-01-12T16:19:07.144Z,1027.17
2018-01-12T16:20:12.672Z,1027.18
2018-01-12T16:21:18.201Z,1027.20
2018-01-12T16:22:23.738Z,1027.15
2018-01-12T16:23:29.260Z,1027.13
2018-01-12T16:24:34.789Z,1027.16
2018-01-12T16:25:40.332Z,1027.13
2018-01-12T16:26:45.848Z,1027.17
2018-01-12T16:27:51.384Z,1027.17
2018-01-12T16:28:56.909Z,1027.16
2018-01-12T16:30:02.437Z,1027.23
2018-01-12T16:31:07.972Z,1027.21
2018-01-12T16:32:13.496Z,1027.26
2018-01-12T16:33:19.069Z,1027.20
2018-01-12T16:34:24.556Z,1027.15
2018-01-12T16:35:30.088Z,1027.20
2018-01-12T16:36:35.614Z,1027.21
2018-01-12T16:37:41.148Z,1027.24
2018-01-12T16:38:46.676Z,1027.23
2018-01-12T16:39:52.211Z,1027.27
2018-01-12T16:40:57.732Z,1027.25
2018-01-12T16:42:03.268Z,1027.23
2018-01-12T16:43:08.842Z,1027.27
2018-01-12T16:44:14.321Z,1027.28
2018-01-12T16:45:19.846Z,1027.22
2018-01-12T16:46:25.379Z,1027.24
2018-01-12T16:47:30.916Z,1027.25
2018-01-12T16:48:36.434Z,1027.26
2018-01-12T16:49:41.979Z,1027.30
2018-01-12T16:51:54.850Z,1027.24
2018-01-12T16:53:03.671Z,1027.33
2018-01-12T16:55:12.183Z,1027.37
2018-01-12T16:56:15.688Z,1027.34
2018-01-12T16:57:24.147Z,1027.39
2018-01-12T16:58:28.465Z,1027.38
2018-01-12T16:59:31.728Z,1027.40
2018-01-12T17:00:37.257Z,1027.41
2018-01-12T17:01:42.794Z,1027.44
2018-01-12T17:02:48.315Z,1027.47
2018-01-12T17:03:53.846Z,1027.46
2018-01-12T17:04:59.372Z,1027.49
2018-01-12T17:06:04.902Z,1027.49
2018-01-12T17:07:10.429Z,1027.47
2018-01-12T17:08:15.969Z,1027.49
2018-01-12T17:09:21.490Z,1027.47
2018-01-12T17:10:27.021Z,1027.52
2018-01-12T17:11:32.549Z,1027.46
2018-01-12T17:12:38.077Z,1027.51
2018-01-12T17:13:43.607Z,1027.48
2018-01-12T17:14:49.140Z,1027.47
2018-01-12T17:15:54.686Z,1027.51
2018-01-12T17:17:00.200Z,1027.47
2018-01-12T17:18:05.727Z,1027.48
2018-01-12T17:19:11.263Z,1027.48
2018-01-12T17:20:16.785Z,1027.45
2018-01-12T17:21:22.315Z,1027.48
2018-01-12T17:22:27.854Z,1027.47
2018-01-12T17:23:33.373Z,1027.46
2018-01-12T17:24:38.903Z,1027.46
2018-01-12T17:25:44.429Z,1027.47
2018-01-12T17:26:49.955Z,1027.46
2018-01-12T17:27:55.505Z,1027.44
2018-01-12T17:29:01.025Z,1027.50
2018-01-12T17:30:06.545Z,1027.44
2018-01-12T17:31:12.074Z,1027.47
2018-01-12T17:32:17.605Z,1027.44
2018-01-12T17:33:23.137Z,1027.41
2018-01-12T17:34:28.669Z,1027.41
2018-01-12T17:35:34.187Z,1027.43
2018-01-12T17:36:39.737Z,1027.46
2018-01-12T17:37:45.255Z,1027.44
2018-01-12T17:38:50.783Z,1027.45
2018-01-12T17:39:56.306Z,1027.44
2018-01-12T17:41:01.837Z,1027.44
2018-01-12T17:42:07.367Z,1027.42
2018-01-12T17:43:12.902Z,1027.45
2018-01-12T17:44:18.421Z,1027.45
2018-01-12T17:45:23.954Z,1027.42
2018-01-12T17:46:29.521Z,1027.49
2018-01-12T17:47:35.019Z,1027.49
2018-01-12T17:48:40.544Z,1027.45
2018-01-12T17:49:46.074Z,1027.47
2018-01-12T17:50:51.636Z,1027.47
2018-01-12T17:51:57.128Z,1027.49
2018-01-12T17:53:02.655Z,1027.49
2018-01-12T17:54:08.191Z,1027.47
2018-01-12T17:55:13.768Z,1027.44
2018-01-12T17:56:19.242Z,1027.42
2018-01-12T17:57:24.773Z,1027.45
2018-01-12T17:58:30.303Z,1027.43
2018-01-12T17:59:35.839Z,1027.47
2018-01-12T18:00:41.362Z,1027.43
2018-01-12T18:01:46.890Z,1027.44
2018-01-12T18:02:52.417Z,1027.44
2018-01-12T18:03:57.945Z,1027.47
2018-01-12T18:05:03.475Z,1027.48
2018-01-12T18:06:09.004Z,1027.46
2018-01-12T18:07:14.601Z,1027.41
2018-01-12T18:08:20.064Z,1027.42
2018-01-12T18:09:25.593Z,1027.48
2018-01-12T18:10:31.119Z,1027.46
2018-01-12T18:11:36.660Z,1027.50
2018-01-12T18:12:42.188Z,1027.51
2018-01-12T18:13:47.711Z,1027.53
2018-01-12T18:14:53.241Z,1027.51
2018-01-12T18:15:58.769Z,1027.51
2018-01-12T18:17:04.299Z,1027.49
2018-01-12T18:18:09.824Z,1027.57
2018-01-12T18:19:15.358Z,1027.57
2018-01-12T18:20:20.888Z,1027.57
2018-01-12T18:21:26.415Z,1027.59
2018-01-12T18:22:31.938Z,1027.61
2018-01-12T18:23:37.469Z,1027.53
2018-01-12T18:24:42.999Z,1027.61
2018-01-12T18:25:48.532Z,1027.56
2018-01-12T18:26:54.058Z,1027.53
2018-01-12T18:27:59.587Z,1027.52
2018-01-12T18:29:05.115Z,1027.54
2018-01-12T18:30:10.651Z,1027.53
2018-01-12T18:31:16.181Z,1027.53
2018-01-12T18:32:21.708Z,1027.59
2018-01-12T18:33:27.233Z,1027.57
2018-01-12T18:34:32.761Z,1027.53
2018-01-12T18:35:38.290Z,1027.57
2018-01-12T18:36:43.838Z,1027.57
2018-01-12T18:37:49.345Z,1027.55
2018-01-12T18:38:54.883Z,1027.57
2018-01-12T18:40:00.412Z,1027.62
2018-01-12T18:41:05.936Z,1027.61
2018-01-12T18:42:11.490Z,1027.65
2018-01-12T18:43:16.994Z,1027.65
2018-01-12T18:44:22.522Z,1027.68
2018-01-12T18:45:28.056Z,1027.69
2018-01-12T18:46:33.580Z,1027.67
2018-01-12T18:47:39.116Z,1027.69
2018-01-12T18:48:44.641Z,1027.72
2018-01-12T18:49:50.172Z,1027.74
2018-01-12T18:50:55.699Z,1027.71
2018-01-12T18:52:01.226Z,1027.75
2018-01-12T18:53:06.756Z,1027.77
2018-01-12T18:54:12.291Z,1027.76
2018-01-12T18:55:17.815Z,1027.73
2018-01-12T18:56:23.345Z,1027.76
2018-01-12T18:57:28.875Z,1027.81
2018-01-12T18:58:34.403Z,1027.82
2018-01-12T18:59:39.970Z,1027.82
2018-01-12T19:00:45.460Z,1027.83
2018-01-12T19:01:50.991Z,1027.82
2018-01-12T19:02:56.522Z,1027.82
2018-01-12T19:04:02.049Z,1027.82
2018-01-12T19:05:07.576Z,1027.78
2018-01-12T19:06:13.107Z,1027.85
2018-01-12T19:07:18.630Z,1027.83
2018-01-12T19:08:24.158Z,1027.85
2018-01-12T19:09:29.697Z,1027.86
2018-01-12T19:10:35.220Z,1027.88
2018-01-12T19:11:40.753Z,1027.86
2018-01-12T19:12:46.277Z,1027.90
2018-01-12T19:13:51.810Z,1027.90
2018-01-12T19:14:57.342Z,1027.86
2018-01-12T19:16:02.871Z,1027.86
2018-01-12T19:17:08.437Z,1027.85
2018-01-12T19:18:13.926Z,1027.88
2018-01-12T19:19:19.457Z,1027.89
2018-01-12T19:20:24.983Z,1027.92
2018-01-12T19:21:30.508Z,1027.88
2018-01-12T19:22:36.041Z,1027.88
2018-01-12T19:23:41.570Z,1027.88
2018-01-12T19:24:47.101Z,1027.90
2018-01-12T19:25:52.623Z,1027.88
2018-01-12T19:26:58.153Z,1027.87
2018-01-12T19:28:03.685Z,1027.89
2018-01-12T19:29:09.213Z,1027.89
2018-01-12T19:30:14.746Z,1027.90
2018-01-12T19:31:20.269Z,1027.90
2018-01-12T19:32:25.803Z,1027.88
2018-01-12T19:33:31.328Z,1027.90
2018-01-12T19:34:36.853Z,1027.92
2018-01-12T19:35:42.386Z,1027.90
2018-01-12T19:36:47.919Z,1027.93
2018-01-12T19:37:53.446Z,1027.96
2018-01-12T19:38:58.974Z,1027.96
2018-01-12T19:40:04.543Z,1027.94
2018-01-12T19:41:10.030Z,1027.96
2018-01-12T19:42:15.559Z,1027.94
2018-01-12T19:43:21.088Z,1027.96
2018-01-12T19:44:26.626Z,1027.94
2018-01-12T19:45:32.157Z,1027.93
2018-01-12T19:46:37.672Z,1027.96
2018-01-12T19:47:43.202Z,1027.95
2018-01-12T19:48:48.737Z,1027.97
2018-01-12T19:49:54.275Z,1027.95
2018-01-12T19:50:59.801Z,1027.95
2018-01-12T19:52:05.318Z,1027.96
2018-01-12T19:53:10.850Z,1027.96
2018-01-12T19:54:16.385Z,1027.95
2018-01-12T19:55:21.905Z,1027.98
2018-01-12T19:56:27.436Z,1027.97
2018-01-12T19:57:32.969Z,1028.00
2018-01-12T19:58:38.493Z,1027.96
2018-01-12T19:59:44.025Z,1027.95
2018-01-12T20:00:49.563Z,1027.97
2018-01-12T20:01:55.079Z,1027.95
2018-01-12T20:03:00.612Z,1027.93
2018-01-12T20:04:06.145Z,1027.96
2018-01-12T20:05:11.672Z,1027.96
2018-01-12T20:06:17.197Z,1027.94
2018-01-12T20:07:22.725Z,1027.91
2018-01-12T20:08:28.260Z,1027.95
2018-01-12T20:09:33.787Z,1027.93
2018-01-12T20:10:39.312Z,1027.92
2018-01-12T20:11:44.839Z,1027.96
2018-01-12T20:12:50.368Z,1027.99
2018-01-12T20:13:55.899Z,1027.95
2018-01-12T20:15:01.430Z,1027.97
2018-01-12T20:16:06.960Z,1028.00
2018-01-12T20:17:12.486Z,1027.98
2018-01-12T20:18:18.019Z,1027.96
2018-01-12T20:19:23.545Z,1028.00
2018-01-12T20:20:29.071Z,1027.94
2018-01-12T20:21:34.599Z,1027.94
2018-01-12T20:22:40.130Z,1027.91
2018-01-12T20:23:45.659Z,1027.95
2018-01-12T20:24:51.186Z,1027.94
2018-01-12T20:25:56.721Z,1027.94
2018-01-12T20:27:02.255Z,1027.90
2018-01-12T20:28:07.780Z,1027.92
2018-01-12T20:29:13.307Z,1027.93
2018-01-12T20:30:18.834Z,1027.93
2018-01-12T20:31:24.359Z,1027.94
2018-01-12T20:32:29.893Z,1027.94
2018-01-12T20:33:35.428Z,1027.94
2018-01-12T20:34:40.951Z,1027.93
2018-01-12T20:35:46.484Z,1027.93
2018-01-12T20:36:52.013Z,1027.93
2018-01-12T20:37:57.534Z,1027.93
2018-01-12T20:39:03.067Z,1027.89
2018-01-12T20:40:08.589Z,1027.97
2018-01-12T20:41:14.119Z,1027.96
2018-01-12T20:42:19.652Z,1027.96
2018-01-12T20:43:25.181Z,1027.95
2018-01-12T20:44:30.745Z,1027.93
2018-01-12T20:45:36.239Z,1027.98
2018-01-12T20:46:41.766Z,1027.97
2018-01-12T20:47:47.296Z,1027.98
2018-01-12T20:48:52.834Z,1027.97
2018-01-12T20:49:58.359Z,1027.94
2018-01-12T20:51:03.988Z,1028.01
2018-01-12T20:52:09.419Z,1027.99
2018-01-12T20:53:14.989Z,1027.94
2018-01-12T20:54:20.480Z,1027.96
2018-01-12T20:55:25.997Z,1027.99
2018-01-12T20:56:31.528Z,1027.98
2018-01-12T20:57:37.058Z,1027.98
2018-01-12T20:58:42.588Z,1027.96
2018-01-12T20:59:48.119Z,1027.97
2018-01-12T21:00:53.647Z,1027.96
2018-01-12T21:01:59.172Z,1027.99
2018-01-12T21:03:04.704Z,1027.98
2018-01-12T21:04:10.232Z,1027.95
2018-01-12T21:05:15.761Z,1027.95
2018-01-12T21:06:21.287Z,1027.98
2018-01-12T21:07:27.008Z,1027.96
2018-01-12T21:08:32.348Z,1027.97
2018-01-12T21:09:37.879Z,1027.97
2018-01-12T21:10:43.406Z,1027.92
2018-01-12T21:11:48.934Z,1027.95
2018-01-12T21:12:54.463Z,1027.97
2018-01-12T21:13:59.991Z,1027.96
2018-01-12T21:15:05.518Z,1027.90
2018-01-12T21:16:11.047Z,1027.88
2018-01-12T21:17:16.617Z,1027.89
2018-01-12T21:18:22.112Z,1027.90
2018-01-12T21:19:27.639Z,1027.90
2018-01-12T21:20:33.168Z,1027.91
2018-01-12T21:21:38.696Z,1027.93
2018-01-12T21:22:44.277Z,1027.91
2018-01-12T21:23:49.751Z,1027.94
2018-01-12T21:24:55.283Z,1027.98
2018-01-12T21:26:00.812Z,1027.94
2018-01-12T21:27:06.342Z,1027.94
2018-01-12T21:28:11.869Z,1027.94
2018-01-12T21:29:17.414Z,1027.94
2018-01-12T21:30:22.925Z,1027.96
2018-01-12T21:31:28.457Z,1027.93
2018-01-12T21:32:33.993Z,1027.94
2018-01-12T21:33:39.522Z,1027.85
2018-01-12T21:34:45.047Z,1027.95
2018-01-12T21:35:50.577Z,1027.96
2018-01-12T21:36:56.106Z,1027.91
2018-01-12T21:38:01.634Z,1027.93
2018-01-12T21:39:07.162Z,1027.93
2018-01-12T21:40:12.691Z,1027.93
2018-01-12T21:41:18.257Z,1027.95
2018-01-12T21:42:23.755Z,1027.98
2018-01-12T21:43:29.279Z,1028.00
2018-01-12T21:44:34.808Z,1027.94
2018-01-12T21:45:40.342Z,1027.96
2018-01-12T21:46:45.864Z,1027.96
2018-01-12T21:47:51.387Z,1028.01
2018-01-12T21:48:56.918Z,1027.94
2018-01-12T21:50:02.460Z,1028.01
2018-01-12T21:51:07.978Z,1027.98
2018-01-12T21:52:13.507Z,1027.92
2018-01-12T21:53:19.035Z,1028.00
2018-01-12T21:54:24.570Z,1027.98
2018-01-12T21:55:30.097Z,1028.00
2018-01-12T21:56:35.623Z,1027.99
2018-01-12T21:57:41.166Z,1028.05
2018-01-12T21:58:46.691Z,1028.05
2018-01-12T21:59:52.207Z,1028.08
2018-01-12T22:00:57.739Z,1028.09
2018-01-12T22:02:03.275Z,1028.03
2018-01-12T22:03:08.801Z,1028.06
2018-01-12T22:04:14.333Z,1028.08
2018-01-12T22:05:19.856Z,1028.01
2018-01-12T22:06:25.384Z,1028.01
2018-01-12T22:07:30.924Z,1028.06
2018-01-12T22:08:36.561Z,1028.08
2018-01-12T22:09:41.973Z,1028.04
2018-01-12T22:10:47.501Z,1028.12
2018-01-12T22:11:53.028Z,1028.11
2018-01-12T22:12:58.564Z,1028.10
2018-01-12T22:14:04.089Z,1028.08
2018-01-12T22:15:09.626Z,1028.06
2018-01-12T22:16:15.149Z,1028.12
2018-01-12T22:17:20.676Z,1028.07
2018-01-12T22:18:26.331Z,1028.09
2018-01-12T22:19:31.734Z,1028.10
2018-01-12T22:20:37.266Z,1028.03
2018-01-12T22:21:42.791Z,1028.04
2018-01-12T22:22:48.333Z,1028.06
2018-01-12T22:23:53.857Z,1028.05
2018-01-12T22:24:59.381Z,1028.07
2018-01-12T22:26:04.909Z,1028.05
2018-01-12T22:27:10.437Z,1028.08
2018-01-12T22:28:15.968Z,1028.05
2018-01-12T22:29:21.494Z,1028.06
2018-01-12T22:30:27.021Z,1028.06
2018-01-12T22:31:32.558Z,1028.10
2018-01-12T22:32:38.082Z,1028.08
2018-01-12T22:33:43.613Z,1028.13
2018-01-12T22:34:49.141Z,1028.07
2018-01-12T22:35:54.673Z,1028.14
2018-01-12T22:37:00.198Z,1028.11
2018-01-12T22:38:05.726Z,1028.10
2018-01-12T22:39:11.265Z,1028.14
2018-01-12T22:40:16.789Z,1028.12
2018-01-12T22:41:22.309Z,1028.16
2018-01-12T22:42:27.856Z,1028.14
2018-01-12T22:43:33.370Z,1028.15
2018-01-12T22:44:38.903Z,1028.12
2018-01-12T22:45:44.431Z,1028.09
2018-01-12T22:46:49.957Z,1028.09
2018-01-12T22:47:55.486Z,1028.11
2018-01-12T22:49:01.018Z,1028.10
2018-01-12T22:50:06.544Z,1028.12
2018-01-12T22:51:12.078Z,1028.07
2018-01-12T22:52:17.604Z,1028.07
2018-01-12T22:53:23.130Z,1028.07
2018-01-12T22:54:28.665Z,1028.09
2018-01-12T22:55:34.202Z,1028.10
2018-01-12T22:56:39.718Z,1028.07
2018-01-12T22:57:45.249Z,1028.13
2018-01-12T22:58:50.776Z,1028.09
2018-01-12T22:59:56.309Z,1028.07
2018-01-12T23:01:01.838Z,1028.08
2018-01-12T23:02:07.364Z,1028.09
2018-01-12T23:03:12.894Z,1028.07
2018-01-12T23:04:18.427Z,1028.07
2018-01-12T23:05:23.951Z,1028.06
2018-01-12T23:06:29.484Z,1028.07
2018-01-12T23:07:35.009Z,1028.04
2018-01-12T23:08:40.538Z,1028.05
2018-01-12T23:09:46.068Z,1028.03
2018-01-12T23:10:51.597Z,1028.07
2018-01-12T23:11:57.123Z,1028.07
2018-01-12T23:13:02.659Z,1028.08
2018-01-12T23:14:08.188Z,1028.08
2018-01-12T23:15:13.715Z,1028.08
2018-01-12T23:16:19.239Z,1028.08
2018-01-12T23:17:24.772Z,1028.08
2018-01-12T23:18:30.299Z,1028.09
2018-01-12T23:19:35.829Z,1028.07
2018-01-12T23:20:41.362Z,1028.11
2018-01-12T23:21:46.893Z,1028.06
2018-01-12T23:22:52.427Z,1028.12
2018-01-12T23:23:57.948Z,1028.06
2018-01-12T23:25:03.480Z,1028.07
2018-01-12T23:26:09.002Z,1028.06
2018-01-12T23:27:14.606Z,1028.01
2018-01-12T23:28:20.121Z,1028.07
2018-01-12T23:29:25.592Z,1028.05
2018-01-12T23:30:31.124Z,1028.05
2018-01-12T23:31:36.650Z,1028.05
2018-01-12T23:32:42.257Z,1028.03
2018-01-12T23:33:47.720Z,1028.01
2018-01-12T23:34:53.237Z,1028.04
2018-01-12T23:35:58.768Z,1028.02
2018-01-12T23:37:04.294Z,1028.02
2018-01-12T23:38:09.826Z,1028.05
2018-01-12T23:39:15.356Z,1028.03
2018-01-12T23:40:20.880Z,1028.00
2018-01-12T23:41:26.411Z,1027.99
2018-01-12T23:42:31.940Z,1028.04
2018-01-12T23:43:37.465Z,1028.05
2018-01-12T23:44:43.008Z,1028.02
2018-01-12T23:45:48.524Z,1028.06
2018-01-12T23:46:54.054Z,1028.04
2018-01-12T23:47:59.586Z,1028.04
2018-01-12T23:49:05.114Z,1028.06
2018-01-12T23:50:10.647Z,1028.06
2018-01-12T23:51:16.171Z,1028.01
2018-01-12T23:52:21.700Z,1028.02
2018-01-12T23:53:27.236Z,1028.02
2018-01-12T23:54:32.757Z,1027.98
2018-01-12T23:55:38.284Z,1027.96
2018-01-12T23:56:43.819Z,1027.99
2018-01-12T23:57:49.354Z,1027.94
2018-01-12T23:58:54.875Z,1027.94
